Time;durP1;ratioP1;P1;durP2;ratioP2;P2;SDS_P1;SDS_P2;PMS_P1;PMS_P2;Temp;Humidity;BMP_temperature;BMP_pressure;BME280_temperature;BME280_humidity;BME280_pressure;Samples;Min_cycle;Max_cycle;Signal;HPM_P1;HPM_P2
2021/10/23 00:00:00;;;;;;;;;5.50;4.00;;;;;14.05;57.78;102082.63;2091217;28;47194;-47
2021/10/23 00:01:00;;;;;;;;;8.00;6.00;;;;;14.05;58.11;102072.84;2082619;28;47433;-48
2021/10/23 00:02:01;;;;;;;;;7.00;6.00;;;;;14.06;58.10;102082.59;2074219;28;47947;-48
2021/10/23 00:03:01;;;;;;;;;7.67;7.67;;;;;14.07;58.14;102078.16;2082747;28;45591;-49
2021/10/23 00:04:02;;;;;;;;;9.50;9.00;;;;;14.07;58.01;102076.38;2093156;28;48071;-49
2021/10/23 00:05:04;;;;;;;;;6.67;6.33;;;;;14.07;57.72;102075.47;2082998;28;48233;-48
2021/10/23 00:06:04;;;;;;;;;7.00;7.00;;;;;14.08;57.89;102075.47;2082986;28;47218;-46
2021/10/23 00:07:05;;;;;;;;;8.67;7.00;;;;;14.09;57.72;102081.69;2083155;28;47340;-50
2021/10/23 00:08:05;;;;;;;;;8.00;6.00;;;;;14.09;57.89;102073.66;2083002;28;47328;-48
2021/10/23 00:09:06;;;;;;;;;6.67;5.67;;;;;14.09;57.83;102068.34;2083163;28;47220;-51
2021/10/23 00:10:06;;;;;;;;;6.33;6.33;;;;;14.09;57.88;102068.34;2078112;28;47068;-49
2021/10/23 00:11:07;;;;;;;;;8.00;8.00;;;;;14.08;57.91;102063.91;2070440;28;47530;-49
2021/10/23 00:12:08;;;;;;;;;7.33;7.33;;;;;14.07;57.95;102068.34;2079420;28;47178;-49
2021/10/23 00:13:08;;;;;;;;;7.67;7.67;;;;;14.09;57.63;102073.66;2089819;28;48326;-48
2021/10/23 00:14:09;;;;;;;;;5.67;5.67;;;;;14.09;57.94;102071.00;2091489;28;47423;-50
2021/10/23 00:15:10;;;;;;;;;6.67;6.67;;;;;14.10;57.96;102080.78;2091422;28;46104;-49
2021/10/23 00:16:10;;;;;;;;;6.67;6.00;;;;;14.08;57.97;102083.47;2091574;28;48140;-51
2021/10/23 00:17:11;;;;;;;;;8.67;8.00;;;;;14.10;57.99;102080.78;2091182;28;47403;-49
2021/10/23 00:18:11;;;;;;;;;6.67;5.00;;;;;14.11;57.63;102083.44;2086114;28;47205;-50
2021/10/23 00:19:12;;;;;;;;;6.33;5.67;;;;;14.11;57.84;102083.44;2091211;28;46493;-49
2021/10/23 00:20:12;;;;;;;;;5.00;5.00;;;;;14.12;57.66;102079.88;2083060;28;47157;-48
2021/10/23 00:21:13;;;;;;;;;9.25;8.50;;;;;14.12;58.02;102073.66;2083686;28;47111;-49
2021/10/23 00:22:13;;;;;;;;;6.67;6.67;;;;;14.13;57.58;102084.31;2092295;28;47916;-48
2021/10/23 00:23:14;;;;;;;;;5.67;5.67;;;;;14.13;57.73;102081.63;2092581;28;48412;-48
2021/10/23 00:24:14;;;;;;;;;5.67;5.00;;;;;14.14;57.78;102077.19;2093028;28;48319;-50
2021/10/23 00:25:15;;;;;;;;;7.00;6.00;;;;;14.13;57.75;102081.63;2092479;28;48345;-47
2021/10/23 00:26:15;;;;;;;;;8.67;7.00;;;;;14.13;57.98;102084.31;2092841;28;48180;-49
2021/10/23 00:27:16;;;;;;;;;7.00;6.00;;;;;14.13;57.57;102081.63;2083587;28;47321;-50
2021/10/23 00:28:16;;;;;;;;;7.00;7.00;;;;;14.13;57.77;102083.41;2084133;28;45381;-52
2021/10/23 00:29:17;;;;;;;;;4.00;4.00;;;;;14.13;57.76;102084.31;2092479;28;47272;-49
2021/10/23 00:30:17;;;;;;;;;6.67;5.00;;;;;14.13;57.84;102083.41;2084082;28;47488;-47
2021/10/23 00:31:18;;;;;;;;;8.00;7.67;;;;;14.13;57.42;102088.75;2083580;28;47052;-50
2021/10/23 00:32:19;;;;;;;;;7.67;6.33;;;;;14.13;57.89;102084.31;2092912;28;47108;-50
2021/10/23 00:33:19;;;;;;;;;6.00;6.00;;;;;14.13;57.67;102083.41;2092423;28;47819;-49
2021/10/23 00:34:20;;;;;;;;;7.67;7.67;;;;;14.12;57.59;102087.88;2094291;28;47241;-50
2021/10/23 00:35:21;;;;;;;;;5.67;5.67;;;;;14.13;57.66;102083.41;2087979;28;48296;-49
2021/10/23 00:36:21;;;;;;;;;8.33;7.00;;;;;14.13;57.53;102086.97;2083880;28;47209;-52
2021/10/23 00:37:22;;;;;;;;;5.33;5.00;;;;;14.13;57.71;102089.63;2091475;28;46991;-49
2021/10/23 00:38:22;;;;;;;;;7.00;7.00;;;;;14.13;57.30;102092.31;2092622;28;47263;-47
2021/10/23 00:39:23;;;;;;;;;6.00;5.67;;;;;14.14;57.71;102093.19;2092697;28;48227;-48
2021/10/23 00:40:24;;;;;;;;;8.00;6.67;;;;;14.13;57.53;102091.44;2083928;28;47641;-49
2021/10/23 00:41:24;;;;;;;;;6.00;6.00;;;;;14.13;57.69;102091.44;2083712;28;47519;-50
2021/10/23 00:42:25;;;;;;;;;4.00;4.00;;;;;14.14;57.59;102093.19;2092729;28;47963;-47
2021/10/23 00:43:25;;;;;;;;;6.67;6.00;;;;;14.14;57.62;102086.06;2092570;28;48140;-46
2021/10/23 00:44:35;;;;;;;;;8.67;8.00;;;;;14.16;57.69;102091.38;2083760;28;48389;-50
2021/10/23 00:45:35;;;;;;;;;7.00;6.75;;;;;14.14;57.31;102083.41;2084902;28;47208;-48
2021/10/23 00:46:36;;;;;;;;;8.33;6.33;;;;;14.14;57.49;102091.41;2081339;28;47166;-50
2021/10/23 00:47:36;;;;;;;;;9.00;9.00;;;;;14.14;57.34;102086.06;2080598;28;47406;-49
2021/10/23 00:48:37;;;;;;;;;6.00;6.00;;;;;14.16;57.41;102087.81;2092620;28;47329;-51
2021/10/23 00:49:39;;;;;;;;;8.67;7.00;;;;;14.16;57.41;102077.16;2083557;28;47038;-48
2021/10/23 00:50:41;;;;;;;;;5.75;5.75;;;;;14.17;57.08;102084.25;2083961;28;48492;-51
2021/10/23 00:51:41;;;;;;;;;8.00;8.00;;;;;14.15;57.39;102086.94;2092666;28;47213;-51
2021/10/23 00:52:42;;;;;;;;;7.00;5.33;;;;;14.14;57.56;102082.50;2092711;28;47187;-51
2021/10/23 00:53:45;;;;;;;;;6.67;6.33;;;;;14.15;57.04;102086.94;2092595;28;48217;-48
2021/10/23 00:54:46;;;;;;;;;7.25;7.00;;;;;14.14;57.16;102086.06;2092565;28;48352;-52
2021/10/23 00:55:46;;;;;;;;;7.75;6.50;;;;;14.16;57.15;102085.16;2092596;28;48289;-50
2021/10/23 00:56:48;;;;;;;;;5.67;5.00;;;;;14.14;57.17;102091.41;2092600;28;45552;-47
2021/10/23 00:57:48;;;;;;;;;6.75;6.75;;;;;14.16;57.37;102090.50;2092389;28;48087;-50
2021/10/23 00:58:48;;;;;;;;;7.00;7.00;;;;;14.16;56.95;102088.72;2092797;28;46162;-47
2021/10/23 00:59:49;;;;;;;;;6.67;6.67;;;;;14.16;57.38;102085.16;2092483;28;46261;-50
2021/10/23 01:00:49;;;;;;;;;6.67;6.00;;;;;14.16;57.11;102088.72;2092477;28;46925;-48
2021/10/23 01:01:51;;;;;;;;;5.00;5.00;;;;;14.15;56.78;102089.63;2083745;28;45332;-47
2021/10/23 01:02:51;;;;;;;;;4.25;4.25;;;;;14.13;57.14;102084.31;2075510;28;47274;-48
2021/10/23 01:03:51;;;;;;;;;5.67;5.00;;;;;14.14;57.10;102087.84;2083634;28;46187;-49
2021/10/23 01:04:52;;;;;;;;;5.00;4.33;;;;;14.14;56.96;102087.84;2092292;28;46301;-46
2021/10/23 01:05:54;;;;;;;;;7.00;6.67;;;;;14.15;57.00;102081.59;2092577;28;46341;-48
2021/10/23 01:06:55;;;;;;;;;5.00;5.00;;;;;14.13;56.89;102078.97;2092586;28;47117;-47
2021/10/23 01:07:57;;;;;;;;;6.75;6.75;;;;;14.14;56.88;102074.50;2097785;28;48178;-48
2021/10/23 01:08:58;;;;;;;;;5.00;5.00;;;;;14.13;56.69;102073.63;2092434;28;48344;-49
2021/10/23 01:10:00;;;;;;;;;10.25;8.00;;;;;14.14;56.76;102083.41;2089412;28;48291;-49
2021/10/23 01:11:01;;;;;;;;;5.25;5.25;;;;;14.15;56.73;102081.59;2092342;28;46886;-46
2021/10/23 01:12:06;;;;;;;;;8.67;5.67;;;;;14.16;56.70;102077.16;2083678;28;45695;-51
2021/10/23 01:13:06;;;;;;;;;7.00;6.25;;;;;14.16;56.78;102079.81;2083875;28;46344;-48
2021/10/23 01:14:14;;;;;;;;;7.33;6.00;;;;;14.16;56.61;102083.38;2092682;28;46196;-51
2021/10/23 01:15:23;;;;;;;;;8.00;7.50;;;;;14.16;56.64;102083.38;2092265;28;48282;-49
2021/10/23 01:16:24;;;;;;;;;7.00;7.00;;;;;14.14;56.67;102083.41;2092721;28;47426;-47
2021/10/23 01:17:25;;;;;;;;;7.33;7.00;;;;;14.13;56.54;102081.63;2091565;28;47087;-51
2021/10/23 01:18:25;;;;;;;;;4.67;4.67;;;;;14.12;56.69;102076.31;2079100;28;45785;-49
2021/10/23 01:19:26;;;;;;;;;5.33;4.67;;;;;14.12;56.34;102084.31;2083455;28;48314;-50
2021/10/23 01:20:27;;;;;;;;;6.67;6.67;;;;;14.12;56.44;102079.00;2092438;28;47240;-51
2021/10/23 01:21:27;;;;;;;;;4.33;4.33;;;;;14.11;56.72;102082.56;2092264;28;47079;-47
2021/10/23 01:22:32;;;;;;;;;5.67;5.67;;;;;14.11;56.54;102087.91;2087862;28;47211;-48
2021/10/23 01:23:32;;;;;;;;;6.00;5.75;;;;;14.11;56.61;102088.78;2089276;28;47806;-48
2021/10/23 01:24:33;;;;;;;;;6.00;6.00;;;;;14.10;56.42;102076.34;2092639;28;47800;-50
2021/10/23 01:25:34;;;;;;;;;5.00;5.00;;;;;14.10;56.57;102084.34;2092305;28;47797;-50
2021/10/23 01:26:36;;;;;;;;;4.25;4.25;;;;;14.11;56.60;102079.91;2092377;28;47252;-50
2021/10/23 01:27:38;;;;;;;;;6.00;6.00;;;;;14.10;56.47;102083.44;2092467;28;47511;-49
2021/10/23 01:28:39;;;;;;;;;7.25;6.25;;;;;14.10;56.31;102080.78;2092406;28;45287;-49
2021/10/23 01:29:40;;;;;;;;;7.00;5.50;;;;;14.11;56.36;102085.22;2092404;28;45542;-49
2021/10/23 01:30:40;;;;;;;;;7.67;5.67;;;;;14.11;56.30;102079.91;2083631;28;47199;-47
2021/10/23 01:31:42;;;;;;;;;5.00;5.00;;;;;14.11;56.34;102077.22;2082327;28;47004;-49
2021/10/23 01:32:42;;;;;;;;;6.25;4.75;;;;;14.12;56.43;102071.88;2091624;28;47376;-47
2021/10/23 01:33:43;;;;;;;;;5.67;5.00;;;;;14.11;56.18;102066.53;2088847;28;47141;-45
2021/10/23 01:34:43;;;;;;;;;6.00;5.00;;;;;14.11;56.32;102072.78;2088440;28;48399;-45
2021/10/23 01:35:44;;;;;;;;;7.00;7.00;;;;;14.12;56.33;102068.31;2084058;28;48593;-47
2021/10/23 01:36:50;;;;;;;;;6.00;6.00;;;;;14.12;56.23;102070.97;2080718;28;47606;-50
2021/10/23 01:37:54;;;;;;;;;7.75;7.00;;;;;14.12;56.54;102077.19;2084235;28;47309;-46
2021/10/23 01:38:54;;;;;;;;;8.00;6.50;;;;;14.13;56.23;102070.06;2092315;28;47287;-48
2021/10/23 01:39:55;;;;;;;;;6.00;6.00;;;;;14.13;56.47;102062.06;2087155;28;47303;-46
2021/10/23 01:40:55;;;;;;;;;7.33;7.33;;;;;14.12;56.31;102063.84;2084126;28;47237;-49
2021/10/23 01:41:56;;;;;;;;;9.33;7.33;;;;;14.12;56.31;102061.19;2067064;28;47270;-50
2021/10/23 01:42:56;;;;;;;;;7.00;7.00;;;;;14.12;56.23;102063.84;2070366;28;47160;-49
2021/10/23 01:43:57;;;;;;;;;8.00;8.00;;;;;14.14;56.18;102061.16;2092259;28;47019;-46
2021/10/23 01:44:57;;;;;;;;;5.00;5.00;;;;;14.13;56.20;102065.63;2085460;28;48365;-50
2021/10/23 01:45:58;;;;;;;;;7.00;6.00;;;;;14.12;56.12;102061.19;2079341;28;48012;-46
2021/10/23 01:46:58;;;;;;;;;6.00;5.00;;;;;14.13;56.31;102064.72;2083454;28;48407;-46
2021/10/23 01:47:59;;;;;;;;;6.33;5.00;;;;;14.13;56.41;102064.72;2087127;28;48262;-49
2021/10/23 01:49:01;;;;;;;;;6.67;6.67;;;;;14.13;56.36;102067.41;2075288;28;47408;-48
2021/10/23 01:50:02;;;;;;;;;5.00;5.00;;;;;14.12;56.53;102066.53;2075349;28;45328;-51
2021/10/23 01:51:03;;;;;;;;;5.67;5.67;;;;;14.12;56.48;102063.84;2075245;28;45643;-48
2021/10/23 01:52:04;;;;;;;;;6.00;6.00;;;;;14.12;56.25;102062.97;2075080;28;47747;-49
2021/10/23 01:53:04;;;;;;;;;6.00;6.00;;;;;14.12;56.26;102052.28;2083909;28;47374;-47
2021/10/23 01:54:08;;;;;;;;;6.00;5.33;;;;;14.12;56.18;102058.50;2083954;28;46367;-48
2021/10/23 01:55:10;;;;;;;;;5.75;5.25;;;;;14.13;56.64;102060.28;2083884;28;47435;-51
2021/10/23 01:56:11;;;;;;;;;7.25;7.25;;;;;14.12;56.45;102055.84;2083966;28;47496;-48
2021/10/23 01:57:11;;;;;;;;;4.00;4.00;;;;;14.13;56.31;102054.06;2076018;28;48125;-48
2021/10/23 01:58:13;;;;;;;;;6.67;6.67;;;;;14.13;56.16;102054.06;2083395;28;48257;-47
2021/10/23 01:59:14;;;;;;;;;8.00;8.00;;;;;14.13;56.20;102054.94;2087059;28;48255;-46
2021/10/23 02:00:16;;;;;;;;;2.00;2.00;;;;;14.13;56.32;102054.94;2084147;28;47572;-46
2021/10/23 02:01:17;;;;;;;;;4.00;4.00;;;;;14.14;56.06;102055.81;2083698;28;48230;-47
2021/10/23 02:02:17;;;;;;;;;8.00;6.00;;;;;14.13;56.14;102054.06;2087437;28;47514;-48
2021/10/23 02:03:18;;;;;;;;;6.33;6.33;;;;;14.13;56.12;102052.25;2092000;28;47232;-49
2021/10/23 02:04:18;;;;;;;;;7.33;6.00;;;;;14.13;56.34;102052.25;2093563;28;47253;-50
2021/10/23 02:05:19;;;;;;;;;7.00;7.00;;;;;14.12;56.09;102047.84;2096835;28;47191;-50
2021/10/23 02:06:20;;;;;;;;;6.67;6.67;;;;;14.14;56.20;102050.47;2084169;28;46209;-48
2021/10/23 02:07:21;;;;;;;;;6.25;5.25;;;;;14.13;56.19;102048.72;2074853;28;46432;-45
2021/10/23 02:08:21;;;;;;;;;7.00;5.33;;;;;14.12;56.20;102045.16;2075025;28;46842;-50
2021/10/23 02:09:21;;;;;;;;;4.00;4.00;;;;;14.12;55.86;102044.28;2083418;28;46899;-49
2021/10/23 02:10:22;;;;;;;;;5.33;4.67;;;;;14.11;56.61;102043.41;2078333;28;47056;-51
2021/10/23 02:11:22;;;;;;;;;7.67;6.67;;;;;14.11;56.23;102048.75;2083064;28;48117;-48
2021/10/23 02:12:23;;;;;;;;;5.33;5.33;;;;;14.11;56.14;102048.75;2092270;28;47006;-49
2021/10/23 02:13:24;;;;;;;;;5.67;5.67;;;;;14.10;56.12;102044.31;2092165;28;47194;-50
2021/10/23 02:14:24;;;;;;;;;9.33;6.33;;;;;14.10;56.18;102044.31;2091930;28;47737;-49
2021/10/23 02:15:25;;;;;;;;;6.67;5.67;;;;;14.10;56.61;102046.06;2083144;28;46283;-50
2021/10/23 02:16:25;;;;;;;;;5.67;5.67;;;;;14.10;56.14;102041.63;2074945;28;47705;-48
2021/10/23 02:17:26;;;;;;;;;7.00;7.00;;;;;14.09;56.04;102039.84;2083179;28;47279;-46
2021/10/23 02:18:27;;;;;;;;;6.00;6.00;;;;;14.09;56.26;102046.97;2083174;28;47155;-47
2021/10/23 02:19:27;;;;;;;;;5.00;5.00;;;;;14.08;56.21;102043.44;2075068;28;48001;-47
2021/10/23 02:20:33;;;;;;;;;5.67;4.67;;;;;14.07;56.28;102041.66;2081871;28;47217;-46
2021/10/23 02:21:34;;;;;;;;;6.50;6.00;;;;;14.07;56.08;102039.00;2091988;28;47881;-49
2021/10/23 02:22:34;;;;;;;;;4.00;4.00;;;;;14.06;56.26;102039.91;2091964;28;46807;-48
2021/10/23 02:23:35;;;;;;;;;5.00;5.00;;;;;14.06;56.22;102039.91;2092029;28;45317;-49
2021/10/23 02:24:36;;;;;;;;;6.33;6.33;;;;;14.06;56.16;102039.91;2092176;28;47189;-47
2021/10/23 02:25:36;;;;;;;;;7.00;5.00;;;;;14.06;56.15;102031.00;2092063;28;47213;-47
2021/10/23 02:26:37;;;;;;;;;6.00;6.00;;;;;14.06;56.51;102036.34;2092135;28;46825;-46
2021/10/23 02:27:38;;;;;;;;;7.00;6.00;;;;;14.06;56.36;102039.91;2082942;28;48164;-47
2021/10/23 02:28:38;;;;;;;;;6.50;5.25;;;;;14.07;56.15;102030.09;2083117;28;47385;-48
2021/10/23 02:29:39;;;;;;;;;4.67;4.33;;;;;14.06;56.32;102033.69;2091970;28;47854;-48
2021/10/23 02:30:39;;;;;;;;;5.33;5.33;;;;;14.08;56.28;102031.88;2091950;28;45549;-50
2021/10/23 02:31:40;;;;;;;;;3.00;3.00;;;;;14.08;56.08;102029.19;2091875;28;46718;-46
2021/10/23 02:32:41;;;;;;;;;7.00;5.00;;;;;14.07;56.52;102022.97;2083277;28;47321;-46
2021/10/23 02:33:41;;;;;;;;;5.33;5.33;;;;;14.08;56.29;102023.84;2082633;28;48312;-46
2021/10/23 02:34:42;;;;;;;;;5.00;5.00;;;;;14.07;56.19;102030.09;2091073;28;48307;-48
2021/10/23 02:35:42;;;;;;;;;7.00;7.00;;;;;14.07;55.99;102032.78;2092265;28;46388;-46
2021/10/23 02:36:44;;;;;;;;;4.00;4.00;;;;;14.07;55.79;102030.09;2091956;28;48620;-47
2021/10/23 02:37:45;;;;;;;;;5.00;5.00;;;;;14.07;56.32;102027.44;2092120;28;47225;-47
2021/10/23 02:38:47;;;;;;;;;7.50;7.00;;;;;14.06;56.29;102029.22;2091968;28;46040;-51
2021/10/23 02:39:47;;;;;;;;;7.25;7.00;;;;;14.06;56.22;102029.22;2091859;28;48161;-47
2021/10/23 02:40:48;;;;;;;;;7.00;7.00;;;;;14.05;56.14;102034.59;2092247;28;48486;-46
2021/10/23 02:41:49;;;;;;;;;6.00;6.00;;;;;14.06;56.24;102033.69;2091761;28;47628;-47
2021/10/23 02:42:49;;;;;;;;;7.33;7.33;;;;;14.06;56.13;102039.03;2082595;28;47361;-49
2021/10/23 02:43:53;;;;;;;;;8.00;6.00;;;;;14.04;56.24;102033.72;2082538;28;46746;-47
2021/10/23 02:44:54;;;;;;;;;7.50;5.50;;;;;14.06;56.31;102039.03;2082723;28;47085;-47
2021/10/23 02:45:54;;;;;;;;;6.67;6.67;;;;;14.05;55.98;102034.59;2084300;28;46979;-49
2021/10/23 02:46:55;;;;;;;;;6.00;6.00;;;;;14.04;56.26;102040.84;2077733;28;48045;-46
2021/10/23 02:47:55;;;;;;;;;6.00;6.00;;;;;14.03;56.10;102045.28;2076469;28;46531;-48
2021/10/23 02:48:56;;;;;;;;;6.00;6.00;;;;;14.04;56.40;102039.03;2074943;28;47110;-49
2021/10/23 02:49:56;;;;;;;;;6.67;6.67;;;;;14.04;56.42;102049.72;2079620;28;46978;-47
2021/10/23 02:50:57;;;;;;;;;6.00;6.00;;;;;14.03;56.11;102042.63;2083278;28;47218;-49
2021/10/23 02:51:57;;;;;;;;;5.33;5.33;;;;;14.05;56.10;102045.25;2082812;28;47772;-48
2021/10/23 02:52:58;;;;;;;;;7.00;6.67;;;;;14.04;56.34;102040.84;2078512;28;45456;-46
2021/10/23 02:53:59;;;;;;;;;4.33;4.33;;;;;14.03;56.28;102044.41;2082885;28;47103;-47
2021/10/23 02:54:59;;;;;;;;;8.67;6.67;;;;;14.03;56.27;102039.97;2083029;28;48255;-46
2021/10/23 02:56:00;;;;;;;;;6.33;6.33;;;;;14.03;56.10;102042.63;2082674;28;48442;-49
2021/10/23 02:57:00;;;;;;;;;6.00;5.00;;;;;14.04;56.40;102038.16;2092242;28;46073;-48
2021/10/23 02:58:01;;;;;;;;;8.00;6.33;;;;;14.04;56.36;102041.72;2082617;28;46520;-48
2021/10/23 02:59:01;;;;;;;;;6.00;3.00;;;;;14.05;56.17;102042.59;2083168;28;47006;-47
2021/10/23 03:00:05;;;;;;;;;5.33;5.33;;;;;14.05;56.43;102040.81;2083245;28;47228;-46
2021/10/23 03:01:05;;;;;;;;;4.75;4.50;;;;;14.05;56.27;102042.59;2087798;28;48492;-48
2021/10/23 03:02:06;;;;;;;;;7.00;7.00;;;;;14.05;56.17;102051.50;2091767;28;46573;-45
2021/10/23 03:03:06;;;;;;;;;6.00;6.00;;;;;14.06;56.36;102050.56;2082733;28;48085;-48
2021/10/23 03:04:07;;;;;;;;;5.67;5.67;;;;;14.06;56.15;102044.34;2082895;28;48103;-49
2021/10/23 03:05:08;;;;;;;;;6.00;6.00;;;;;14.06;56.09;102044.34;2091751;28;47329;-49
2021/10/23 03:06:09;;;;;;;;;5.33;5.33;;;;;14.06;56.47;102049.69;2094268;28;47068;-47
2021/10/23 03:07:09;;;;;;;;;6.67;6.33;;;;;14.06;56.41;102053.25;2090855;28;47032;-48
2021/10/23 03:08:10;;;;;;;;;6.33;6.33;;;;;14.06;56.12;102050.56;2074735;28;47039;-49
2021/10/23 03:09:14;;;;;;;;;7.00;7.00;;;;;14.07;56.39;102049.66;2078961;28;47280;-49
2021/10/23 03:10:15;;;;;;;;;5.00;5.00;;;;;14.07;56.37;102052.34;2094187;28;47514;-49
2021/10/23 03:11:16;;;;;;;;;5.25;5.00;;;;;14.08;56.49;102045.22;2088577;28;47071;-49
2021/10/23 03:12:16;;;;;;;;;5.67;5.33;;;;;14.07;56.32;102047.00;2091730;28;45129;-47
2021/10/23 03:13:18;;;;;;;;;5.00;5.00;;;;;14.08;56.28;102053.22;2091854;28;47197;-48
2021/10/23 03:14:18;;;;;;;;;5.25;4.50;;;;;14.09;56.45;102046.97;2082790;28;47704;-46
2021/10/23 03:15:19;;;;;;;;;5.33;5.33;;;;;14.09;56.39;102046.97;2082584;28;47018;-45
2021/10/23 03:16:19;;;;;;;;;5.00;5.00;;;;;14.09;56.45;102042.50;2091885;28;47708;-50
2021/10/23 03:17:20;;;;;;;;;6.00;6.00;;;;;14.09;56.56;102045.19;2091592;28;47215;-47
2021/10/23 03:18:20;;;;;;;;;6.00;6.00;;;;;14.10;56.52;102040.72;2084088;28;47221;-49
2021/10/23 03:19:21;;;;;;;;;8.00;6.00;;;;;14.10;56.72;102044.31;2091022;28;47467;-47
2021/10/23 03:20:21;;;;;;;;;6.00;6.00;;;;;14.10;56.41;102033.63;2091571;28;47132;-49
2021/10/23 03:21:22;;;;;;;;;7.33;7.00;;;;;14.11;56.28;102039.84;2091567;28;47260;-47
2021/10/23 03:22:23;;;;;;;;;8.00;6.67;;;;;14.10;56.52;102044.31;2087695;28;47369;-49
2021/10/23 03:23:24;;;;;;;;;7.50;7.25;;;;;14.11;56.32;102045.19;2087623;28;48582;-50
2021/10/23 03:24:24;;;;;;;;;7.67;6.00;;;;;14.10;56.45;102046.06;2091795;28;48073;-52
2021/10/23 03:25:25;;;;;;;;;8.00;6.67;;;;;14.11;56.18;102031.84;2082473;28;48017;-49
2021/10/23 03:26:25;;;;;;;;;7.67;7.67;;;;;14.10;56.28;102036.31;2082775;28;47879;-48
2021/10/23 03:27:26;;;;;;;;;6.00;6.00;;;;;14.11;56.57;102042.53;2091488;28;47235;-50
2021/10/23 03:28:26;;;;;;;;;7.00;5.33;;;;;14.11;56.30;102034.50;2091694;28;46356;-48
2021/10/23 03:29:27;;;;;;;;;8.33;7.33;;;;;14.10;56.39;102043.41;2082728;28;48096;-52
2021/10/23 03:30:27;;;;;;;;;5.00;5.00;;;;;14.09;56.59;102034.50;2082749;28;47250;-50
2021/10/23 03:31:28;;;;;;;;;7.00;5.67;;;;;14.11;56.45;102040.72;2091365;28;48259;-47
2021/10/23 03:32:28;;;;;;;;;6.00;5.00;;;;;14.10;56.47;102044.31;2091308;28;47784;-47
2021/10/23 03:33:29;;;;;;;;;7.33;6.00;;;;;14.10;56.54;102041.63;2090683;28;47303;-50
2021/10/23 03:34:29;;;;;;;;;5.33;4.00;;;;;14.10;56.56;102040.72;2088249;28;48351;-52
2021/10/23 03:35:30;;;;;;;;;7.00;6.33;;;;;14.10;56.19;102041.63;2083770;28;47238;-52
2021/10/23 03:36:30;;;;;;;;;6.00;6.00;;;;;14.10;56.33;102035.38;2083484;28;47370;-51
2021/10/23 03:37:33;;;;;;;;;7.00;7.00;;;;;14.10;56.25;102038.06;2083042;28;47949;-52
2021/10/23 03:38:33;;;;;;;;;7.75;6.50;;;;;14.09;56.14;102033.63;2087010;28;48276;-46
2021/10/23 03:39:34;;;;;;;;;5.00;5.00;;;;;14.10;56.36;102040.72;2085018;28;47210;-46
2021/10/23 03:40:35;;;;;;;;;5.67;4.67;;;;;14.09;56.13;102036.28;2083436;28;47232;-49
2021/10/23 03:41:37;;;;;;;;;4.00;4.00;;;;;14.08;56.17;102035.41;2083142;28;47299;-50
2021/10/23 03:42:37;;;;;;;;;6.25;5.50;;;;;14.08;56.13;102037.19;2083174;28;46977;-47
2021/10/23 03:43:37;;;;;;;;;6.00;6.00;;;;;14.07;56.42;102039.00;2083125;28;48246;-47
2021/10/23 03:44:38;;;;;;;;;5.33;5.33;;;;;14.07;56.27;102041.66;2083328;28;48255;-46
2021/10/23 03:45:38;;;;;;;;;9.00;9.00;;;;;14.06;56.25;102037.22;2083205;28;47233;-50
2021/10/23 03:46:39;;;;;;;;;7.67;7.67;;;;;14.06;56.38;102039.91;2082640;28;46048;-50
2021/10/23 03:47:39;;;;;;;;;5.00;5.00;;;;;14.07;56.13;102038.13;2076083;28;47233;-50
2021/10/23 03:48:40;;;;;;;;;7.00;7.00;;;;;14.08;56.25;102034.53;2084729;28;47688;-50
2021/10/23 03:49:42;;;;;;;;;5.67;5.67;;;;;14.08;56.37;102039.88;2091473;28;47853;-48
2021/10/23 03:50:42;;;;;;;;;6.75;5.75;;;;;14.07;56.32;102036.31;2091573;28;47761;-46
2021/10/23 03:51:43;;;;;;;;;7.00;6.67;;;;;14.07;56.44;102035.44;2091562;28;47231;-51
2021/10/23 03:52:44;;;;;;;;;4.50;4.50;;;;;14.08;56.28;102038.09;2091547;28;48328;-49
2021/10/23 03:53:44;;;;;;;;;8.00;6.00;;;;;14.07;56.20;102039.00;2091377;28;47171;-50
2021/10/23 03:54:45;;;;;;;;;6.67;4.67;;;;;14.08;56.17;102038.09;2081809;28;47158;-47
2021/10/23 03:55:45;;;;;;;;;6.00;6.00;;;;;14.07;56.30;102035.44;2074179;28;48293;-48
2021/10/23 03:56:45;;;;;;;;;7.00;7.00;;;;;14.06;56.35;102031.00;2072903;28;46420;-47
2021/10/23 03:57:47;;;;;;;;;6.00;5.00;;;;;14.05;56.29;102032.81;2074364;28;47093;-51
2021/10/23 03:58:47;;;;;;;;;7.25;7.25;;;;;14.05;55.99;102029.25;2079370;28;47261;-48
2021/10/23 03:59:48;;;;;;;;;6.00;6.00;;;;;14.06;56.36;102037.22;2082584;28;47284;-49
2021/10/23 04:00:48;;;;;;;;;7.00;6.00;;;;;14.06;56.31;102031.91;2083009;28;47837;-47
2021/10/23 04:01:49;;;;;;;;;5.67;5.67;;;;;14.06;55.99;102031.00;2083021;28;47144;-47
2021/10/23 04:02:49;;;;;;;;;7.00;7.00;;;;;14.07;56.31;102035.44;2084355;28;47350;-47
2021/10/23 04:03:50;;;;;;;;;7.67;6.33;;;;;14.07;56.41;102032.78;2076036;28;47201;-49
2021/10/23 04:04:51;;;;;;;;;6.00;4.50;;;;;14.06;56.13;102026.56;2087557;28;47429;-49
2021/10/23 04:05:51;;;;;;;;;7.00;6.00;;;;;14.06;56.12;102033.69;2083179;28;46904;-49
2021/10/23 04:06:52;;;;;;;;;4.33;4.33;;;;;14.07;56.45;102025.66;2087961;28;46987;-49
2021/10/23 04:07:52;;;;;;;;;5.00;5.00;;;;;14.06;55.96;102029.22;2082487;28;47165;-50
2021/10/23 04:08:53;;;;;;;;;6.33;6.33;;;;;14.07;56.42;102031.00;2082525;28;47414;-48
2021/10/23 04:09:53;;;;;;;;;6.00;6.00;;;;;14.08;56.18;102031.88;2089393;28;47179;-50
2021/10/23 04:10:54;;;;;;;;;6.00;6.00;;;;;14.08;56.42;102030.06;2090907;28;46658;-49
2021/10/23 04:11:54;;;;;;;;;7.00;5.33;;;;;14.08;56.25;102026.53;2084961;28;47174;-46
2021/10/23 04:12:55;;;;;;;;;7.00;5.33;;;;;14.08;56.15;102023.84;2082957;28;47943;-48
2021/10/23 04:13:55;;;;;;;;;7.67;7.67;;;;;14.08;56.42;102029.19;2083201;28;48071;-48
2021/10/23 04:14:56;;;;;;;;;5.00;5.00;;;;;14.07;56.42;102028.31;2083035;28;47190;-49
2021/10/23 04:15:56;;;;;;;;;6.67;6.67;;;;;14.07;56.15;102032.78;2083034;28;48573;-48
2021/10/23 04:16:57;;;;;;;;;9.00;6.50;;;;;14.07;56.22;102025.66;2083019;28;47305;-48
2021/10/23 04:17:57;;;;;;;;;6.33;6.33;;;;;14.06;56.54;102026.56;2084872;28;48414;-50
2021/10/23 04:18:57;;;;;;;;;8.67;6.00;;;;;14.07;56.40;102027.44;2083339;28;47203;-47
2021/10/23 04:19:58;;;;;;;;;3.00;3.00;;;;;14.07;56.32;102025.66;2082783;28;45189;-48
2021/10/23 04:20:58;;;;;;;;;6.33;6.33;;;;;14.06;56.45;102029.22;2083302;28;47228;-46
2021/10/23 04:22:00;;;;;;;;;8.00;5.00;;;;;14.08;56.41;102031.88;2083512;28;46865;-47
2021/10/23 04:23:00;;;;;;;;;5.25;5.25;;;;;14.08;56.32;102026.53;2091298;28;47374;-49
2021/10/23 04:24:01;;;;;;;;;6.33;6.00;;;;;14.08;56.14;102026.53;2091177;28;48056;-50
2021/10/23 04:25:01;;;;;;;;;5.67;5.67;;;;;14.09;56.42;102033.63;2091500;28;47068;-50
2021/10/23 04:26:02;;;;;;;;;7.33;5.00;;;;;14.08;56.29;102029.19;2091143;28;47558;-51
2021/10/23 04:27:02;;;;;;;;;5.00;5.00;;;;;14.08;56.29;102034.53;2091590;28;47281;-50
2021/10/23 04:28:03;;;;;;;;;6.33;6.00;;;;;14.08;56.49;102035.41;2091299;28;45431;-50
2021/10/23 04:29:04;;;;;;;;;6.33;6.00;;;;;14.08;56.29;102032.75;2091502;28;47094;-49
2021/10/23 04:30:05;;;;;;;;;7.25;5.00;;;;;14.08;56.45;102032.75;2091225;28;47268;-49
2021/10/23 04:31:06;;;;;;;;;6.75;6.50;;;;;14.08;56.43;102030.06;2091514;28;46518;-50
2021/10/23 04:32:06;;;;;;;;;5.33;5.33;;;;;14.10;56.03;102035.38;2091174;28;48354;-46
2021/10/23 04:33:07;;;;;;;;;7.00;5.33;;;;;14.10;56.20;102032.72;2091408;28;46835;-46
2021/10/23 04:34:07;;;;;;;;;4.67;4.67;;;;;14.08;56.15;102032.75;2091268;28;46002;-47
2021/10/23 04:35:09;;;;;;;;;7.20;7.20;;;;;14.08;56.21;102024.75;2090870;28;47231;-48
2021/10/23 04:36:10;;;;;;;;;7.67;7.00;;;;;14.08;56.27;102030.06;2091337;28;47179;-47
2021/10/23 04:37:10;;;;;;;;;6.00;6.00;;;;;14.08;56.44;102027.41;2091347;28;46209;-47
2021/10/23 04:38:11;;;;;;;;;5.33;4.00;;;;;14.08;56.25;102034.53;2091026;28;48105;-46
2021/10/23 04:39:11;;;;;;;;;7.33;5.00;;;;;14.08;56.12;102030.06;2091208;28;48239;-48
2021/10/23 04:40:12;;;;;;;;;5.33;5.33;;;;;14.09;56.53;102028.28;2091314;28;48402;-47
2021/10/23 04:41:12;;;;;;;;;5.00;5.00;;;;;14.09;56.23;102026.50;2091327;28;47124;-47
2021/10/23 04:42:13;;;;;;;;;6.25;6.00;;;;;14.09;56.23;102029.16;2082301;28;47730;-48